Dades meteomassalio
Diari Summary for Juny 26, 2017 Units:  Metric    English   Both
« Previous Day
Next Day »
Diari Semanal Mensual Anual Personalitzat
  Maxima: Minima: Mijana:
Temperatura: -17.8 °C -6.9 °C -3.8 °C
Rosada: -17.8 °C -9.6 °C -7.9 °C
Humitat: Humidity % 41 % 66 %
Velocitat del vent: 0 km/h 0 km/h 11.4 km/h
Racha vent: 0 km/h - -
Vent:- - SSE
Pressio: 0 hPa 34120.7 hPa -
Pluja: 109.22 mm    
Historical Graphs
 
 
Tabular Data for Juny 26, 2017
Time Temperature Dew Point Pressure Wind Wind Speed Wind Gust Humidity Rainfall Rate (Hourly) solar Conditions
-17.8 °C -17.8 °C 0 hPa Calm     Humidity % 0 mm SolarRadiationWatts/m^2 W/m2 Conditions
00:03 -4.3 °C -9.3 °C 34269.7 hPa SSE 12.9 km/h 12.9 km/h 57 % 0 mm 0.0 W/m2 CLR
00:08 -4.3 °C -9.3 °C 34269.7 hPa SE 29.8 km/h 29.8 km/h 57 % 0 mm 0.0 W/m2 CLR
00:13 -4.3 °C -9.3 °C 34269.7 hPa SE 29.8 km/h 29.8 km/h 57 % 0 mm 0.0 W/m2 CLR
00:18 -4.3 °C -9.3 °C 34279.9 hPa SSE 9 km/h 9 km/h 57 % 0 mm 0.0 W/m2 CLR
00:23 -4.3 °C -9.2 °C 34279.9 hPa SSE 15.6 km/h 15.6 km/h 58 % 0 mm 0.0 W/m2 CLR
00:28 -4.3 °C -8.9 °C 34279.9 hPa SSE 29.8 km/h 29.8 km/h 60 % 0 mm 0.0 W/m2 CLR
00:33 -4.4 °C -8.8 °C 34279.9 hPa SSE 26.9 km/h 26.9 km/h 61 % 0 mm 0.0 W/m2 CLR
00:38 -4.4 °C -8.8 °C 34293.4 hPa Calm     61 % 0 mm 0.0 W/m2 CLR
00:43 -4.4 °C -8.9 °C 34279.9 hPa Calm     61 % 0 mm 0.0 W/m2 CLR
00:48 -4.5 °C -8.9 °C 34293.4 hPa Calm     61 % 0 mm 0.0 W/m2 CLR
00:53 -4.6 °C -9 °C 34293.4 hPa NW 9 km/h 9 km/h 61 % 0 mm 0.0 W/m2 CLR
00:58 -4.7 °C -8.9 °C 34293.4 hPa WSW 9 km/h 9 km/h 62 % 0 mm 0.0 W/m2 CLR
01:03 -4.6 °C -9.1 °C 34303.6 hPa SSW 15.6 km/h 15.6 km/h 61 % 0 mm 0.0 W/m2 CLR
01:08 -4.6 °C -9 °C 34293.4 hPa SW 20.9 km/h 20.9 km/h 61 % 0 mm 0.0 W/m2 CLR
01:13 -4.6 °C -9.2 °C 34303.6 hPa NW 20.9 km/h 20.9 km/h 60 % 0 mm 0.0 W/m2 CLR
01:18 -4.7 °C -9.6 °C 34303.6 hPa West 17.9 km/h 17.9 km/h 58 % 0 mm 0.0 W/m2 CLR
01:23 -4.6 °C -8.2 °C 34303.6 hPa West 23.8 km/h 23.8 km/h 67 % 0 mm 0.0 W/m2 CLR
01:28 -4.6 °C -7.4 °C 34303.6 hPa West 11.9 km/h 11.9 km/h 73 % 0 mm 0.0 W/m2 CLR
01:33 -4.7 °C -7.4 °C 34303.6 hPa West 11.9 km/h 11.9 km/h 74 % 0 mm 0.0 W/m2 CLR
01:38 -4.8 °C -7.4 °C 34303.6 hPa Calm     75 % 0 mm 0.0 W/m2 CLR
01:43 -4.9 °C -7.3 °C 34293.4 hPa Calm     76 % 0 mm 0.0 W/m2 CLR
01:48 -4.9 °C -7.3 °C 34293.4 hPa Calm     77 % 0 mm 0.0 W/m2 CLR
01:53 -5.1 °C -7.5 °C 34293.4 hPa Calm     76 % 0 mm 0.0 W/m2 CLR
01:54 -5 °C -7.4 °C 34293.4 hPa Calm     76 % 0 mm 0.0 W/m2 CLR
01:59 -5.1 °C -7.6 °C 34293.4 hPa Calm     76 % 0 mm 0.0 W/m2 CLR
02:04 -5.2 °C -7.7 °C 34279.9 hPa Calm     75 % 0 mm 0.0 W/m2 CLR
02:09 -5.2 °C -7.8 °C 34279.9 hPa Calm     75 % 0 mm 0.0 W/m2 CLR
02:14 -5.3 °C -7.8 °C 34279.9 hPa Calm     76 % 0 mm 0.0 W/m2 CLR
02:19 -5.4 °C -7.8 °C 34269.7 hPa Calm     76 % 0 mm 0.0 W/m2 CLR
02:24 -5.4 °C -7.8 °C 34269.7 hPa Calm     77 % 0 mm 0.0 W/m2 CLR
02:29 -5.5 °C -7.7 °C 34269.7 hPa Calm     78 % 0 mm 0.0 W/m2 CLR
02:34 -5.6 °C -7.9 °C 34269.7 hPa Calm     77 % 0 mm 0.0 W/m2 CLR
02:39 -5.6 °C -7.7 °C 34256.2 hPa Calm     79 % 0 mm 0.0 W/m2 CLR
02:44 -5.7 °C -8 °C 34256.2 hPa Calm     77 % 0 mm 0.0 W/m2 CLR
02:49 -5.7 °C -7.7 °C 34246 hPa Calm     80 % 0 mm 0.0 W/m2 CLR
02:54 -5.8 °C -7.9 °C 34246 hPa Calm     79 % 0 mm 0.0 W/m2 CLR
02:59 -5.9 °C -7.9 °C 34235.8 hPa Calm     79 % 0 mm 0.0 W/m2 CLR
03:04 -5.9 °C -7.8 °C 34235.8 hPa Calm     81 % 0 mm 0.0 W/m2 CLR
03:05 -5.9 °C -7.8 °C 34235.8 hPa Calm     81 % 0 mm 0.0 W/m2 CLR
03:10 -6 °C -8.1 °C 34235.8 hPa Calm     79 % 0 mm 0.0 W/m2 CLR
03:15 -6 °C -7.9 °C 34235.8 hPa Calm     81 % 0 mm 0.0 W/m2 CLR
03:20 -6.1 °C -7.9 °C 34235.8 hPa Calm     82 % 0 mm 0.0 W/m2 CLR
03:26 -6.2 °C -7.9 °C 34235.8 hPa Calm     82 % 0 mm 0.0 W/m2 CLR
03:31 -6.2 °C -7.9 °C 34235.8 hPa Calm     83 % 0 mm 0.0 W/m2 CLR
03:36 -6.3 °C -7.8 °C 34235.8 hPa Calm     84 % 0 mm 0.0 W/m2 CLR
03:41 -6.2 °C -7.6 °C 34256.2 hPa West 15.6 km/h 15.6 km/h 86 % 0 mm 0.0 W/m2 CLR
03:46 -6.1 °C -7.4 °C 34293.4 hPa West 32.8 km/h 32.8 km/h 86 % 0 mm 0.0 W/m2 CLR
03:51 -6 °C -7.4 °C 34256.2 hPa NW 12.9 km/h 12.9 km/h 85 % 0 mm 0.0 W/m2 CLR
03:56 -6 °C -7.4 °C 34188.4 hPa SE 29.8 km/h 29.8 km/h 85 % 7.62 mm 0.0 W/m2 RA
04:01 -6.1 °C -7.4 °C 34212.1 hPa Calm     86 % 7.62 mm 0.0 W/m2
04:06 -6.2 °C -7.4 °C 34246 hPa WNW 23.8 km/h 23.8 km/h 87 % 7.62 mm 0.0 W/m2 CLR
04:11 -6.2 °C -7.4 °C 34246 hPa WNW 17.9 km/h 17.9 km/h 87 % 7.62 mm 0.0 W/m2 CLR
04:16 -6.2 °C -7.4 °C 34256.2 hPa Calm     87 % 7.62 mm 0.0 W/m2 CLR
04:21 -6.2 °C -7.3 °C 34279.9 hPa WSW 12.9 km/h 12.9 km/h 88 % 7.62 mm 0.0 W/m2 CLR
04:26 -6.1 °C -7.3 °C 34293.4 hPa West 29.8 km/h 29.8 km/h 88 % 7.62 mm 0.0 W/m2 CLR
04:31 -6.1 °C -7.3 °C 34303.6 hPa West 35.7 km/h 35.7 km/h 87 % 7.62 mm 0.0 W/m2 CLR
04:36 -6.1 °C -7.3 °C 34293.4 hPa WNW 33.6 km/h 33.6 km/h 87 % 7.62 mm 0.0 W/m2 CLR
04:41 -6.2 °C -7.4 °C 34279.9 hPa WNW 17.9 km/h 17.9 km/h 87 % 7.62 mm 0.0 W/m2 CLR
04:46 -6.2 °C -7.4 °C 34279.9 hPa WNW 15 km/h 15 km/h 87 % 7.62 mm 0.0 W/m2 CLR
04:51 -6.2 °C -7.6 °C 34256.2 hPa Calm     86 % 7.62 mm 0.0 W/m2 CLR
04:56 -6.3 °C -7.5 °C 34235.8 hPa Calm     87 % 0 mm 0.0 W/m2 CLR
05:01 -6.3 °C -7.5 °C 34222.3 hPa Calm     87 % 0 mm 0.0 W/m2 CLR
05:06 -6.3 °C -7.5 °C 34235.8 hPa Calm     87 % 0 mm 0.0 W/m2 CLR
05:11 -6.3 °C -7.5 °C 34246 hPa Calm     87 % 0 mm 0.0 W/m2 CLR
05:16 -6.3 °C -7.6 °C 34235.8 hPa Calm     87 % 0 mm 0.0 W/m2 CLR
05:21 -6.3 °C -7.6 °C 34235.8 hPa Calm     87 % 0 mm 0.0 W/m2 CLR
05:26 -6.4 °C -7.7 °C 34235.8 hPa Calm     87 % 0 mm 0.0 W/m2 CLR
05:31 -6.5 °C -7.7 °C 34235.8 hPa Calm     88 % 0 mm 0.0 W/m2 CLR
05:36 -6.6 °C -7.7 °C 34246 hPa Calm     88 % 0 mm 0.0 W/m2 CLR
05:41 -6.6 °C -7.7 °C 34222.3 hPa Calm     89 % 0 mm 0.0 W/m2 CLR
05:46 -6.6 °C -7.7 °C 34212.1 hPa Calm     89 % 0 mm 0.0 W/m2 CLR
05:51 -6.6 °C -7.7 °C 34222.3 hPa Calm     89 % 0 mm 0.0 W/m2 CLR
05:56 -6.7 °C -7.7 °C 34222.3 hPa Calm     89 % 0 mm 0.0 W/m2 CLR
06:01 -6.7 °C -7.7 °C 34235.8 hPa Calm     89 % 0 mm 0.0 W/m2 CLR
06:06 -6.7 °C -7.6 °C 34256.2 hPa NW 20.8 km/h 20.8 km/h 90 % 0 mm 0.0 W/m2 CLR
06:11 -6.7 °C -7.7 °C 34246 hPa NW 11.9 km/h   89 % 0 mm 0.0 W/m2 CLR
06:16 -6.6 °C -7.7 °C 34235.8 hPa Calm     89 % 0 mm 0.0 W/m2 CLR
06:21 -6.6 °C -7.7 °C 34235.8 hPa ESE 12.9 km/h 12.9 km/h 89 % 0 mm 0.0 W/m2 OVC
06:26 -6.6 °C -7.7 °C 34212.1 hPa East 20.9 km/h 20.9 km/h 89 % 12.7 mm 0.0 W/m2 RA
06:31 -6.7 °C -7.7 °C 34212.1 hPa ENE 9 km/h 9 km/h 89 % 20.32 mm 0.0 W/m2 RA
06:36 -6.7 °C -7.6 °C 34198.6 hPa ESE 9 km/h   90 % 20.32 mm 0.0 W/m2
06:41 -6.6 °C -7.6 °C 34198.6 hPa ESE 9 km/h 9 km/h 90 % 25.4 mm 0.0 W/m2 RA
06:46 -6.7 °C -7.6 °C 34198.6 hPa NNE 3.1 km/h 3.1 km/h 90 % 33.02 mm 0.0 W/m2 RA
06:51 -6.6 °C -7.4 °C 34222.3 hPa NNW 28.5 km/h 28.5 km/h 91 % 38.1 mm 0.0 W/m2 RA
06:56 -6.7 °C -7.6 °C 34222.3 hPa NW 17.9 km/h 17.9 km/h 91 % 38.1 mm 0.0 W/m2 CLR
07:01 -6.8 °C -7.6 °C 34235.8 hPa NNW 15 km/h 15 km/h 91 % 45.72 mm 0.0 W/m2 RA
07:06 -6.8 °C -7.7 °C 34222.3 hPa Calm     91 % 45.72 mm 0.0 W/m2 CLR
07:11 -6.8 °C -7.7 °C 34222.3 hPa Calm     91 % 45.72 mm 5.0 W/m2 OVC
07:16 -6.8 °C -7.7 °C 34222.3 hPa NNW 7.7 km/h 7.7 km/h 91 % 45.72 mm 9.0 W/m2 BKN
07:21 -6.8 °C -7.7 °C 34246 hPa WNW 29.8 km/h 29.8 km/h 91 % 50.8 mm 5.0 W/m2 RA
07:26 -6.8 °C -7.7 °C 34269.7 hPa WNW 36.2 km/h 36.2 km/h 91 % 38.1 mm 5.0 W/m2
07:31 -6.8 °C -7.6 °C 34222.3 hPa Calm     91 % 63.5 mm 5.0 W/m2 RA
07:36 -6.8 °C -7.6 °C 34222.3 hPa Calm     91 % 76.2 mm 5.0 W/m2 RA
07:41 -6.8 °C -7.6 °C 34222.3 hPa Calm     91 % 76.2 mm 9.0 W/m2 RA
07:46 -6.8 °C -7.7 °C 34222.3 hPa Calm     91 % 76.2 mm 12.0 W/m2 RA
07:51 -6.8 °C -7.7 °C 34235.8 hPa Calm     91 % 71.12 mm 7.0 W/m2 BKN
07:56 -6.8 °C -7.7 °C 34222.3 hPa Calm     91 % 71.12 mm 9.0 W/m2 BKN
08:01 -6.8 °C -7.6 °C 34235.8 hPa Calm     92 % 58.42 mm 32.0 W/m2 BKN
08:06 -6.9 °C -7.6 °C 34235.8 hPa Calm     92 % 58.42 mm 62.0 W/m2 BKN
08:11 -6.9 °C -7.6 °C 34222.3 hPa Calm     92 % 58.42 mm 149.0 W/m2 SCT
08:16 -6.9 °C -7.6 °C 34222.3 hPa Calm     92 % 58.42 mm 127.0 W/m2 CLR
08:21 -6.8 °C -7.6 °C 34222.3 hPa Calm     92 % 58.42 mm 151.0 W/m2 CLR
08:26 -6.8 °C -7.6 °C 34235.8 hPa Calm     92 % 58.42 mm 91.0 W/m2 CLR
08:31 -6.8 °C -7.6 °C 34235.8 hPa Calm     92 % 20.32 mm 81.0 W/m2 CLR
08:36 -6.9 °C -7.6 °C 34235.8 hPa Calm     92 % 12.7 mm 67.0 W/m2 CLR
08:41 -6.8 °C -7.6 °C 34235.8 hPa Calm     92 % 7.62 mm 67.0 W/m2 FEW
08:46 -6.9 °C -7.7 °C 34222.3 hPa Calm     91 % 0 mm 105.0 W/m2 SCT
08:51 -6.8 °C -7.7 °C 34222.3 hPa Calm     91 % 0 mm 169.0 W/m2 FEW
08:56 -6.8 °C -7.7 °C 34222.3 hPa Calm     91 % 0 mm 267.0 W/m2 CLR
09:02 -6.7 °C -7.6 °C 34222.3 hPa Calm     91 % 0 mm 251.0 W/m2 CLR
09:07 -6.7 °C -7.5 °C 34222.3 hPa Calm     91 % 0 mm 207.0 W/m2 CLR
09:12 -6.6 °C -7.4 °C 34222.3 hPa Calm     91 % 0 mm 213.0 W/m2 CLR
09:17 -6.6 °C -7.4 °C 34222.3 hPa Calm     90 % 0 mm 237.0 W/m2 CLR
09:22 -6.4 °C -7.4 °C 34222.3 hPa Calm     90 % 0 mm 199.0 W/m2 CLR
09:27 -6.3 °C -7.1 °C 34222.3 hPa Calm     91 % 0 mm 221.0 W/m2 CLR
09:32 -6.2 °C -7.1 °C 34222.3 hPa Calm     90 % 0 mm 323.0 W/m2 CLR
09:37 -6.2 °C -7.1 °C 34222.3 hPa Calm     90 % 0 mm 297.0 W/m2 CLR
09:42 -6 °C -7 °C 34222.3 hPa Calm     90 % 0 mm 352.0 W/m2 CLR
09:47 -6 °C -7.1 °C 34222.3 hPa Calm     89 % 0 mm 301.0 W/m2 CLR
09:52 -5.9 °C -7 °C 34212.1 hPa Calm     89 % 0 mm 429.0 W/m2 CLR
09:57 -5.9 °C -7.1 °C 34212.1 hPa Calm     88 % 0 mm 387.0 W/m2 CLR
10:02 -5.8 °C -6.8 °C 34212.1 hPa Calm     89 % 0 mm 599.0 W/m2 CLR
10:07 -5.7 °C -6.8 °C 34212.1 hPa Calm     88 % 0 mm 649.0 W/m2 CLR
10:12 -5.7 °C -6.8 °C 34212.1 hPa Calm     88 % 0 mm 752.0 W/m2 CLR
10:17 -5.6 °C -6.8 °C 34212.1 hPa Calm     87 % 0 mm 765.0 W/m2 CLR
10:22 -5.4 °C -6.7 °C 34212.1 hPa Calm     87 % 0 mm 782.0 W/m2 CLR
10:27 -5.3 °C -6.6 °C 34212.1 hPa Calm     87 % 0 mm 782.0 W/m2 CLR
10:32 -5.2 °C -6.6 °C 34212.1 hPa Calm     86 % 0 mm 279.0 W/m2 CLR
10:37 -5.2 °C -6.8 °C 34212.1 hPa Calm     84 % 0 mm 204.0 W/m2 CLR
10:42 -5.2 °C -6.8 °C 34212.1 hPa Calm     84 % 0 mm 262.0 W/m2 CLR
10:47 -5.2 °C -6.9 °C 34212.1 hPa Calm     83 % 0 mm 192.0 W/m2 CLR
10:52 -5.2 °C -6.9 °C 34212.1 hPa Calm     83 % 0 mm 278.0 W/m2 CLR
10:57 -5.1 °C -6.8 °C 34198.6 hPa Calm     83 % 0 mm 591.0 W/m2 CLR
11:02 -4.9 °C -6.7 °C 34198.6 hPa Calm     82 % 0 mm 380.0 W/m2 CLR
11:07 -4.8 °C -6.6 °C 34198.6 hPa Calm     82 % 0 mm 817.0 W/m2 CLR
11:12 -4.6 °C -6.4 °C 34198.6 hPa Calm     82 % 0 mm 784.0 W/m2 CLR
11:17 -4.4 °C -6.6 °C 34198.6 hPa Calm     79 % 0 mm 788.0 W/m2 CLR
11:22 -4.3 °C -6.4 °C 34198.6 hPa Calm     79 % 0 mm 749.0 W/m2 CLR
11:27 -4.1 °C -6.4 °C 34198.6 hPa Calm     77 % 0 mm 726.0 W/m2 CLR
11:32 -3.8 °C -6.2 °C 34198.6 hPa Calm     77 % 0 mm 777.0 W/m2 CLR
11:37 -3.5 °C -6.1 °C 34198.6 hPa Calm     76 % 0 mm 775.0 W/m2 CLR
11:42 -3.3 °C -6.3 °C 34198.6 hPa North 9 km/h 9 km/h 72 % 0 mm 784.0 W/m2 CLR
11:48 -3.3 °C -6.4 °C 34198.6 hPa NE 9 km/h   71 % 0 mm 795.0 W/m2 CLR
11:53 -3.2 °C -6.4 °C 34198.6 hPa Calm   0.5 km/h 70 % 0 mm 796.0 W/m2 CLR
11:58 -3.1 °C -6.6 °C 34188.4 hPa Calm   0.3 km/h 69 % 0 mm 807.0 W/m2 CLR
12:03 -3.1 °C -6.7 °C 34188.4 hPa Calm     68 % 0 mm 810.0 W/m2 CLR
12:08 -3 °C -6.8 °C 34188.4 hPa ENE 11.9 km/h 11.9 km/h 66 % 0 mm 821.0 W/m2 CLR
12:13 -2.9 °C -7.2 °C 34188.4 hPa ENE 12.9 km/h 12.9 km/h 63 % 0 mm 830.0 W/m2 CLR
12:18 -2.8 °C -7.3 °C 34188.4 hPa ENE 15 km/h 15 km/h 61 % 0 mm 835.0 W/m2 CLR
12:23 -2.6 °C -7.4 °C 34188.4 hPa ESE 15.6 km/h 15.6 km/h 59 % 0 mm 846.0 W/m2 CLR
12:28 -2.4 °C -7.4 °C 34188.4 hPa Calm     58 % 0 mm 853.0 W/m2 CLR
12:33 -2.3 °C -7.7 °C 34188.4 hPa ENE 23.3 km/h 23.3 km/h 56 % 0 mm 861.0 W/m2 CLR
12:38 -2.2 °C -7.1 °C 34178.3 hPa NNE 20.9 km/h 20.9 km/h 59 % 0 mm 867.0 W/m2 CLR
12:43 -2.2 °C -7.2 °C 34178.3 hPa NNE 17.9 km/h 17.9 km/h 58 % 0 mm 868.0 W/m2 CLR
12:48 -2.1 °C -7.6 °C 34178.3 hPa NNE 17.9 km/h 17.9 km/h 55 % 0 mm 879.0 W/m2 CLR
12:53 -2 °C -7.7 °C 34178.3 hPa NE 26.9 km/h 26.9 km/h 54 % 0 mm 884.0 W/m2 CLR
12:58 -1.9 °C -7.6 °C 34178.3 hPa ENE 15.6 km/h 15.6 km/h 54 % 0 mm 888.0 W/m2 CLR
13:03 -1.8 °C -8 °C 34178.3 hPa NNE 15.6 km/h 15.6 km/h 51 % 0 mm 893.0 W/m2 CLR
13:08 -1.7 °C -7.6 °C 34178.3 hPa NE 12.9 km/h 12.9 km/h 53 % 0 mm 898.0 W/m2 CLR
13:13 -1.5 °C -7.9 °C 34178.3 hPa NE 29.8 km/h 29.8 km/h 50 % 0 mm 904.0 W/m2 CLR
13:18 -1.6 °C -7.7 °C 34164.7 hPa NE 20.9 km/h 20.9 km/h 51 % 0 mm 909.0 W/m2 CLR
13:23 -1.6 °C -7.9 °C 34164.7 hPa North 23.8 km/h 23.8 km/h 50 % 0 mm 911.0 W/m2 CLR
13:28 -1.5 °C -7.9 °C 34164.7 hPa ENE 25.9 km/h 25.9 km/h 50 % 0 mm 907.0 W/m2 CLR
13:33 -1.3 °C -7.7 °C 34164.7 hPa NE 25.9 km/h 25.9 km/h 50 % 0 mm 909.0 W/m2 CLR
13:38 -1.2 °C -7.8 °C 34164.7 hPa ENE 26.9 km/h 26.9 km/h 49 % 0 mm 914.0 W/m2 CLR
13:43 -1.2 °C -8.2 °C 34164.7 hPa NNE 20.9 km/h 20.9 km/h 47 % 0 mm 919.0 W/m2 CLR
13:48 -1.2 °C -8.2 °C 34164.7 hPa NNE 26.9 km/h 26.9 km/h 47 % 0 mm 923.0 W/m2 CLR
13:53 -1.2 °C -8.1 °C 34154.6 hPa North 33.6 km/h 33.6 km/h 47 % 0 mm 928.0 W/m2 CLR
13:58 -1.2 °C -8.2 °C 34154.6 hPa NNE 23.8 km/h 23.8 km/h 47 % 0 mm 939.0 W/m2 CLR
14:03 -1.2 °C -8.3 °C 34164.7 hPa ENE 20.9 km/h 20.9 km/h 46 % 0 mm 1000.0 W/m2 CLR
14:08 -1 °C -8.2 °C 34164.7 hPa North 32.8 km/h 32.8 km/h 46 % 0 mm 1044.0 W/m2 CLR
14:13 -1 °C -8.4 °C 34154.6 hPa NNE 32.8 km/h 32.8 km/h 45 % 0 mm 1044.0 W/m2 CLR
14:19 -1.2 °C -8.5 °C 34154.6 hPa North 29.8 km/h 29.8 km/h 45 % 0 mm 350.0 W/m2 CLR
14:24 -1.2 °C -8.4 °C 34154.6 hPa NE 29.8 km/h 29.8 km/h 46 % 0 mm 355.0 W/m2 CLR
14:29 -1.2 °C -8.2 °C 34164.7 hPa NE 35.7 km/h 35.7 km/h 47 % 0 mm 404.0 W/m2 CLR
14:34 -1.3 °C -8.4 °C 34164.7 hPa North 38.8 km/h 38.8 km/h 46 % 0 mm 295.0 W/m2 CLR
14:39 -1.5 °C -8.4 °C 34154.6 hPa NE 20.9 km/h 20.9 km/h 47 % 0 mm 297.0 W/m2 CLR
14:44 -1.5 °C -8.1 °C 34154.6 hPa NE 26.9 km/h 26.9 km/h 49 % 0 mm 316.0 W/m2 CLR
14:49 -1.4 °C -8.2 °C 34154.6 hPa North 26.9 km/h 26.9 km/h 48 % 0 mm 960.0 W/m2 CLR
14:54 -1.2 °C -7.8 °C 34154.6 hPa NNE 18.2 km/h 18.2 km/h 49 % 0 mm 912.0 W/m2 CLR
14:59 -1.1 °C -8 °C 34154.6 hPa NE 20.8 km/h 20.8 km/h 47 % 0 mm 905.0 W/m2 CLR
15:04 -0.9 °C -8.1 °C 34154.6 hPa NE 23.8 km/h 23.8 km/h 46 % 0 mm 914.0 W/m2 CLR
15:09 -0.9 °C -8.4 °C 34154.6 hPa NE 23.8 km/h 23.8 km/h 44 % 0 mm 909.0 W/m2 CLR
15:14 -0.9 °C -8.3 °C 34154.6 hPa East 18.2 km/h 18.2 km/h 45 % 0 mm 902.0 W/m2 CLR
15:19 -0.9 °C -8.1 °C 34144.4 hPa NNW 11.9 km/h 11.9 km/h 46 % 0 mm 891.0 W/m2 CLR
15:24 -0.7 °C -8.3 °C 34144.4 hPa North 29.8 km/h 29.8 km/h 44 % 0 mm 888.0 W/m2 CLR
15:29 -0.6 °C -8 °C 34144.4 hPa North 26.9 km/h 26.9 km/h 45 % 0 mm 935.0 W/m2 CLR
15:34 -0.5 °C -8.1 °C 34144.4 hPa North 29.8 km/h 29.8 km/h 44 % 0 mm 861.0 W/m2 CLR
15:39 -0.7 °C -8.4 °C 34144.4 hPa North 20.9 km/h 20.9 km/h 43 % 0 mm 854.0 W/m2 CLR
15:44 -0.7 °C -8.3 °C 34144.4 hPa North 23.8 km/h 23.8 km/h 44 % 0 mm 837.0 W/m2 CLR
15:49 -0.8 °C -8.4 °C 34144.4 hPa ENE 32.8 km/h 32.8 km/h 44 % 0 mm 835.0 W/m2 CLR
15:54 -0.8 °C -8.4 °C 34144.4 hPa NNW 17.9 km/h 17.9 km/h 44 % 0 mm 844.0 W/m2 CLR
15:59 -0.8 °C -8.2 °C 34144.4 hPa North 29.8 km/h 29.8 km/h 45 % 0 mm 849.0 W/m2 CLR
16:04 -0.9 °C -8.3 °C 34144.4 hPa North 32.8 km/h 32.8 km/h 45 % 0 mm 346.0 W/m2 CLR
16:09 -1.1 °C -8.4 °C 34144.4 hPa NNW 17.9 km/h 17.9 km/h 45 % 0 mm 949.0 W/m2 CLR
16:14 -0.9 °C -8.1 °C 34144.4 hPa NNE 29.8 km/h 29.8 km/h 46 % 0 mm 826.0 W/m2 CLR
16:19 -0.8 °C -8.4 °C 34144.4 hPa NE 32.8 km/h 32.8 km/h 44 % 0 mm 795.0 W/m2 CLR
16:24 -0.8 °C -8.2 °C 34144.4 hPa NE 15 km/h 15 km/h 45 % 0 mm 773.0 W/m2 CLR
16:29 -0.7 °C -8.3 °C 34144.4 hPa NNE 29.8 km/h 29.8 km/h 44 % 0 mm 768.0 W/m2 CLR
16:34 -0.7 °C -8.2 °C 34144.4 hPa NNW 29.8 km/h 29.8 km/h 44 % 0 mm 754.0 W/m2 CLR
16:39 -0.6 °C -8.4 °C 34144.4 hPa Calm     43 % 0 mm 742.0 W/m2 CLR
16:44 -0.5 °C -8.3 °C 34144.4 hPa North 23.8 km/h 23.8 km/h 43 % 0 mm 735.0 W/m2 CLR
16:49 -0.4 °C -8.1 °C 34144.4 hPa NE 15.6 km/h 15.6 km/h 44 % 0 mm 721.0 W/m2 CLR
16:54 -0.4 °C -8 °C 34144.4 hPa NNW 15 km/h 15 km/h 44 % 0 mm 701.0 W/m2 CLR
16:59 -0.5 °C -8.1 °C 34130.9 hPa North 17.9 km/h 17.9 km/h 44 % 0 mm 707.0 W/m2 CLR
17:04 -0.3 °C -7.9 °C 34130.9 hPa ENE 15 km/h 15 km/h 44 % 0 mm 693.0 W/m2 CLR
17:09 -0.2 °C -8.1 °C 34130.9 hPa North 28.5 km/h 28.5 km/h 43 % 0 mm 682.0 W/m2 CLR
17:14 -0.3 °C -8.1 °C 34130.9 hPa NW 18.2 km/h 18.2 km/h 43 % 0 mm 687.0 W/m2 CLR
17:19 -0.2 °C -8 °C 34130.9 hPa NNW 3.1 km/h 3.1 km/h 43 % 0 mm 700.0 W/m2 CLR
17:24 -0.1 °C -8.1 °C 34130.9 hPa North 38.8 km/h 38.8 km/h 42 % 0 mm 673.0 W/m2 CLR
17:29 -0.2 °C -8.1 °C 34130.9 hPa NW 26.9 km/h 26.9 km/h 43 % 0 mm 624.0 W/m2 CLR
17:34 -0.3 °C -8.4 °C 34130.9 hPa NE 18.2 km/h 18.2 km/h 42 % 0 mm 621.0 W/m2 CLR
17:39 -0.3 °C -8.2 °C 34130.9 hPa North 17.9 km/h 17.9 km/h 43 % 0 mm 606.0 W/m2 CLR
17:44 -0.3 °C -8.4 °C 34130.9 hPa NNW 32.8 km/h 32.8 km/h 42 % 0 mm 585.0 W/m2 CLR
17:49 -0.4 °C -8.4 °C 34130.9 hPa NNW 32.8 km/h 32.8 km/h 42 % 0 mm 570.0 W/m2 CLR
17:54 -0.5 °C -8.7 °C 34130.9 hPa NW 15 km/h 15 km/h 41 % 0 mm 561.0 W/m2 CLR
17:59 -0.4 °C -8.7 °C 34130.9 hPa NNW 26.9 km/h 26.9 km/h 41 % 0 mm 552.0 W/m2 CLR
18:04 -0.4 °C -8.5 °C 34130.9 hPa NNE 20.9 km/h 20.9 km/h 42 % 0 mm 545.0 W/m2 CLR
18:09 -0.5 °C -8.3 °C 34120.7 hPa NNE 11.9 km/h 11.9 km/h 43 % 0 mm 306.0 W/m2 CLR
18:14 -0.7 °C -8.4 °C 34130.9 hPa NNW 17.9 km/h 17.9 km/h 43 % 0 mm 234.0 W/m2 CLR
18:19 -0.6 °C -8.4 °C 34130.9 hPa NNE 15 km/h 15 km/h 43 % 0 mm 570.0 W/m2 CLR
18:24 -0.6 °C -8.2 °C 34120.7 hPa North 23.8 km/h 23.8 km/h 44 % 0 mm 541.0 W/m2 CLR
18:29 -0.4 °C -8.2 °C 34120.7 hPa North 41.7 km/h 41.7 km/h 43 % 0 mm 461.0 W/m2 CLR
18:34 -0.5 °C -8.3 °C 34120.7 hPa NNE 20.9 km/h 20.9 km/h 43 % 0 mm 446.0 W/m2 CLR
18:39 -0.5 °C -8.1 °C 34120.7 hPa North 32.8 km/h 32.8 km/h 44 % 0 mm 434.0 W/m2 CLR
18:44 -0.7 °C -8.4 °C 34120.7 hPa North 11.9 km/h 11.9 km/h 43 % 0 mm 413.0 W/m2 CLR
18:49 -0.7 °C -8.4 °C 34120.7 hPa NNE 36.2 km/h 36.2 km/h 43 % 0 mm 373.0 W/m2 CLR
18:54 -0.7 °C -8.5 °C 34120.7 hPa NNE 32.8 km/h 32.8 km/h 43 % 0 mm 408.0 W/m2 CLR
18:59 -0.8 °C -8.6 °C 34120.7 hPa NNE 29.8 km/h 29.8 km/h 43 % 0 mm 376.0 W/m2 CLR
19:04 -0.7 °C -8.4 °C 34120.7 hPa North 25.9 km/h 25.9 km/h 43 % 0 mm 352.0 W/m2 CLR
19:09 -0.7 °C -8.4 °C 34120.7 hPa North 25.9 km/h 25.9 km/h 43 % 0 mm 339.0 W/m2 CLR
19:14 -0.8 °C -8.6 °C 34130.9 hPa North 36.2 km/h 36.2 km/h 43 % 0 mm 316.0 W/m2 CLR
19:19 -0.9 °C -8.4 °C 34130.9 hPa North 29.8 km/h 29.8 km/h 44 % 0 mm 302.0 W/m2 CLR
19:24 -0.9 °C -8.4 °C 34130.9 hPa North 32.8 km/h 32.8 km/h 44 % 0 mm 283.0 W/m2 CLR
19:25 -0.9 °C -8.4 °C 34130.9 hPa NNE 32.8 km/h 32.8 km/h 44 % 0 mm 283.0 W/m2 CLR
19:30 -0.9 °C -8.5 °C 34130.9 hPa North 26.9 km/h 26.9 km/h 44 % 0 mm 265.0 W/m2 CLR
19:35 -1 °C -8.6 °C 34130.9 hPa North 29.8 km/h 29.8 km/h 44 % 0 mm 250.0 W/m2 CLR
19:36 -1 °C -8.6 °C 34130.9 hPa North 29.8 km/h 29.8 km/h 44 % 0 mm 246.0 W/m2 CLR
19:41 -1.1 °C -8.6 °C 34130.9 hPa North 9 km/h 9 km/h 44 % 0 mm 236.0 W/m2 CLR
19:46 -1 °C -8.6 °C 34144.4 hPa North 26.9 km/h 26.9 km/h 44 % 0 mm 221.0 W/m2 CLR
19:51 -1.1 °C -8.7 °C 34144.4 hPa North 29.8 km/h 29.8 km/h 44 % 0 mm 207.0 W/m2 CLR
19:56 -1.1 °C -8.7 °C 34144.4 hPa NNW 23.8 km/h 23.8 km/h 44 % 0 mm 186.0 W/m2 CLR
20:01 -1.1 °C -8.8 °C 34144.4 hPa NNW 17.9 km/h 17.9 km/h 43 % 0 mm 172.0 W/m2 CLR
20:06 -1.2 °C -8.7 °C 34144.4 hPa NNW 29.8 km/h 29.8 km/h 44 % 0 mm 158.0 W/m2 CLR
20:11 -1.3 °C -8.8 °C 34144.4 hPa North 29.8 km/h 29.8 km/h 44 % 0 mm 144.0 W/m2 CLR
20:16 -1.3 °C -8.9 °C 34144.4 hPa North 17.9 km/h 17.9 km/h 44 % 0 mm 127.0 W/m2 CLR
20:21 -1.4 °C -8.9 °C 34144.4 hPa NNW 15 km/h 15 km/h 44 % 0 mm 113.0 W/m2 CLR
20:26 -1.5 °C -9 °C 34144.4 hPa NNW 15 km/h 15 km/h 44 % 0 mm 104.0 W/m2 CLR
20:31 -1.5 °C -9 °C 34144.4 hPa NNW 20.9 km/h 20.9 km/h 44 % 0 mm 93.0 W/m2 CLR
20:36 -1.5 °C -8.8 °C 34154.6 hPa NNW 15.6 km/h 15.6 km/h 45 % 0 mm 81.0 W/m2 FEW
20:41 -1.6 °C -8.9 °C 34154.6 hPa North 17.9 km/h 17.9 km/h 45 % 0 mm 69.0 W/m2 FEW
20:46 -1.6 °C -8.7 °C 34154.6 hPa North 15.6 km/h 15.6 km/h 46 % 0 mm 42.0 W/m2 SCT
20:51 -1.7 °C -8.8 °C 34154.6 hPa North 12.9 km/h 12.9 km/h 46 % 0 mm 46.0 W/m2 BKN
20:56 -1.8 °C -8.7 °C 34154.6 hPa North 11.9 km/h 11.9 km/h 47 % 0 mm 40.0 W/m2 BKN
21:01 -1.8 °C -8.8 °C 34154.6 hPa Calm     47 % 0 mm 30.0 W/m2 BKN
21:07 -1.9 °C -8.8 °C 34154.6 hPa North 11.9 km/h 11.9 km/h 47 % 0 mm 25.0 W/m2 BKN
21:11 -2 °C -8.7 °C 34154.6 hPa Calm   2.1 km/h 48 % 0 mm 19.0 W/m2 BKN
21:17 -2.1 °C -8.8 °C 34154.6 hPa Calm     48 % 0 mm 16.0 W/m2 BKN
21:22 -2.2 °C -8.7 °C 34154.6 hPa Calm     49 % 0 mm 12.0 W/m2 BKN
21:27 -2.3 °C -8.7 °C 34154.6 hPa Calm     50 % 0 mm 9.0 W/m2 BKN
21:32 -2.4 °C -8.8 °C 34154.6 hPa Calm     50 % 0 mm 5.0 W/m2 OVC
21:37 -2.6 °C -8.7 °C 34154.6 hPa Calm     51 % 0 mm 0.0 W/m2 OVC
21:42 -2.6 °C -8.7 °C 34154.6 hPa Calm     51 % 0 mm 0.0 W/m2 OVC
21:47 -2.7 °C -8.7 °C 34154.6 hPa Calm     52 % 0 mm 0.0 W/m2 CLR
21:52 -2.8 °C -8.7 °C 34154.6 hPa Calm     52 % 0 mm 0.0 W/m2 CLR
21:57 -2.8 °C -8.8 °C 34164.7 hPa Calm     52 % 0 mm 0.0 W/m2 CLR
22:02 -2.9 °C -8.7 °C 34164.7 hPa Calm     53 % 0 mm 0.0 W/m2 CLR
22:07 -2.9 °C -8.5 °C 34164.7 hPa Calm     54 % 0 mm 0.0 W/m2 CLR
22:12 -3 °C -8.4 °C 34164.7 hPa Calm     55 % 0 mm 0.0 W/m2 CLR
22:17 -3.1 °C -8.5 °C 34178.3 hPa Calm     55 % 0 mm 0.0 W/m2 CLR
22:22 -3.2 °C -8.4 °C 34178.3 hPa Calm     56 % 0 mm 0.0 W/m2 CLR
22:27 -3.2 °C -8.3 °C 34178.3 hPa Calm     57 % 0 mm 0.0 W/m2 CLR
22:32 -3.3 °C -8.3 °C 34178.3 hPa Calm     58 % 0 mm 0.0 W/m2 CLR
22:37 -3.4 °C -8.2 °C 34178.3 hPa Calm     59 % 0 mm 0.0 W/m2 CLR
22:42 -3.6 °C -8.3 °C 34178.3 hPa Calm     59 % 0 mm 0.0 W/m2 CLR
22:47 -3.7 °C -8.3 °C 34178.3 hPa Calm     60 % 0 mm 0.0 W/m2 CLR
22:52 -3.7 °C -8.3 °C 34188.4 hPa Calm     60 % 0 mm 0.0 W/m2 CLR
22:53 -3.7 °C -8.2 °C 34188.4 hPa Calm     61 % 0 mm 0.0 W/m2 CLR
22:58 -3.8 °C -8.1 °C 34188.4 hPa Calm     62 % 0 mm 0.0 W/m2 CLR
23:03 -3.9 °C -8.2 °C 34188.4 hPa Calm     62 % 0 mm 0.0 W/m2 CLR
23:08 -4.1 °C -8.2 °C 34188.4 hPa Calm     63 % 0 mm 0.0 W/m2 CLR
23:13 -4.1 °C -8.3 °C 34188.4 hPa Calm     63 % 0 mm 0.0 W/m2 CLR
23:18 -4.2 °C -8.1 °C 34188.4 hPa Calm     65 % 0 mm 0.0 W/m2 CLR
23:23 -4.3 °C -8.2 °C 34188.4 hPa Calm     65 % 0 mm 0.0 W/m2 CLR
23:28 -4.4 °C -8.2 °C 34188.4 hPa Calm     66 % 0 mm 0.0 W/m2 CLR
23:33 -4.4 °C -8.1 °C 34188.4 hPa Calm     67 % 0 mm 0.0 W/m2 CLR
23:38 -4.6 °C -8 °C 34188.4 hPa Calm     68 % 0 mm 0.0 W/m2 CLR
23:43 -4.7 °C -8.2 °C 34188.4 hPa Calm     68 % 0 mm 0.0 W/m2 CLR
23:48 -4.7 °C -8.1 °C 34188.4 hPa Calm     69 % 0 mm 0.0 W/m2 CLR
23:53 -4.8 °C -8.2 °C 34188.4 hPa Calm     69 % 0 mm 0.0 W/m2 CLR
23:55 -4.8 °C -8.1 °C 34188.4 hPa Calm     70 % 0 mm 0.0 W/m2 CLR
Lo Temps de Massalio
Compliments of Weather Underground - 1.25 mb